createdAt,value
2022-11-06T00:01:22.793Z,32.00
2022-11-06T00:04:30.220Z,28.00
2022-11-06T00:07:32.513Z,28.40
2022-11-06T00:10:36.110Z,34.50
2022-11-06T00:13:40.209Z,31.40
2022-11-06T00:16:45.296Z,30.00
2022-11-06T00:19:50.062Z,27.00
2022-11-06T00:22:53.362Z,32.40
2022-11-06T00:25:56.828Z,28.40
2022-11-06T00:29:00.943Z,27.50
2022-11-06T00:32:04.347Z,29.80
2022-11-06T00:35:10.148Z,31.60
2022-11-06T00:38:13.763Z,31.00
2022-11-06T00:41:18.264Z,28.50
2022-11-06T00:44:21.738Z,30.00
2022-11-06T00:47:25.793Z,28.00
2022-11-06T00:50:30.937Z,30.20
2022-11-06T00:53:34.576Z,29.00
2022-11-06T00:56:38.264Z,28.20
2022-11-06T00:59:41.563Z,28.60
2022-11-06T01:02:45.578Z,29.60
2022-11-06T01:05:50.267Z,28.80
2022-11-06T01:08:54.523Z,26.00
2022-11-06T01:12:12.928Z,28.60
2022-11-06T01:15:16.896Z,28.60
2022-11-06T01:18:20.111Z,30.50
2022-11-06T01:21:28.608Z,26.00
2022-11-06T01:24:32.333Z,28.00
2022-11-06T01:27:35.692Z,32.00
2022-11-06T01:30:39.036Z,24.60
2022-11-06T01:33:42.446Z,29.00
2022-11-06T01:36:48.026Z,24.80
2022-11-06T01:39:54.647Z,29.75
2022-11-06T01:42:59.545Z,26.50
2022-11-06T01:46:02.824Z,30.80
2022-11-06T01:49:09.942Z,29.00
2022-11-06T01:52:17.165Z,33.50
2022-11-06T01:55:26.495Z,33.00
2022-11-06T01:58:33.590Z,30.00
2022-11-06T02:01:37.368Z,27.00
2022-11-06T02:04:44.562Z,27.80
2022-11-06T02:07:50.024Z,29.40
2022-11-06T02:10:54.371Z,27.00
2022-11-06T02:14:09.839Z,29.50
2022-11-06T02:17:22.154Z,25.25
2022-11-06T02:20:33.585Z,28.80
2022-11-06T02:23:57.946Z,30.00
2022-11-06T02:27:12.221Z,26.00
2022-11-06T02:30:17.424Z,28.80
2022-11-06T02:33:29.099Z,29.00
2022-11-06T02:36:37.546Z,26.50
2022-11-06T02:39:45.092Z,27.75
2022-11-06T02:42:55.636Z,28.40
2022-11-06T02:46:05.159Z,26.00
2022-11-06T02:49:11.053Z,24.80
2022-11-06T02:52:21.058Z,28.50
2022-11-06T02:55:30.960Z,26.00
2022-11-06T02:58:48.639Z,22.50
2022-11-06T03:01:56.578Z,27.00
2022-11-06T03:05:06.887Z,23.00
2022-11-06T03:08:17.700Z,24.00
2022-11-06T03:11:24.199Z,26.00
2022-11-06T03:14:35.468Z,25.50
2022-11-06T03:17:44.524Z,24.50
2022-11-06T03:20:58.730Z,23.00
2022-11-06T03:24:09.819Z,24.00
2022-11-06T03:27:19.523Z,26.60
2022-11-06T03:30:24.426Z,24.80
2022-11-06T03:33:34.173Z,23.00
2022-11-06T03:36:42.359Z,23.00
2022-11-06T03:39:50.517Z,23.00
2022-11-06T03:42:59.005Z,25.40
2022-11-06T03:46:08.068Z,23.00
2022-11-06T03:49:17.187Z,23.60
2022-11-06T03:52:28.424Z,24.00
2022-11-06T03:55:36.181Z,26.80
2022-11-06T03:58:43.906Z,25.00
2022-11-06T04:01:50.987Z,23.20
2022-11-06T04:05:00.000Z,24.00
2022-11-06T04:08:22.555Z,25.40
2022-11-06T04:11:46.130Z,22.40
2022-11-06T04:14:54.120Z,24.20
2022-11-06T04:17:58.737Z,21.20
2022-11-06T04:21:26.345Z,22.00
2022-11-06T04:24:57.317Z,24.33
2022-11-06T04:28:20.951Z,21.40
2022-11-06T04:31:37.459Z,25.00
2022-11-06T04:34:49.164Z,21.75
2022-11-06T04:38:02.030Z,23.00
2022-11-06T04:41:14.757Z,25.40
2022-11-06T04:44:27.783Z,27.00
2022-11-06T04:47:32.902Z,26.60
2022-11-06T04:50:43.519Z,23.40
2022-11-06T04:53:48.630Z,23.40
2022-11-06T04:56:52.096Z,22.00
2022-11-06T04:59:57.045Z,24.00
2022-11-06T05:03:00.533Z,25.20
2022-11-06T05:06:05.674Z,23.50
2022-11-06T05:09:09.001Z,26.00
2022-11-06T05:12:12.425Z,27.50
2022-11-06T05:15:15.837Z,22.00
2022-11-06T05:18:19.096Z,23.50
2022-11-06T05:21:41.535Z,21.60
2022-11-06T05:24:44.744Z,25.60
2022-11-06T05:27:48.001Z,24.50
2022-11-06T05:30:51.259Z,25.00
2022-11-06T05:33:54.562Z,22.00
2022-11-06T05:36:59.793Z,24.00
2022-11-06T05:40:03.056Z,24.50
2022-11-06T05:43:06.894Z,21.20
2022-11-06T05:46:29.736Z,25.00
2022-11-06T05:49:33.717Z,25.50
2022-11-06T05:52:39.046Z,24.00
2022-11-06T05:55:42.260Z,24.00
2022-11-06T05:58:45.491Z,25.60
2022-11-06T06:01:48.834Z,26.20
2022-11-06T06:04:52.168Z,25.20
2022-11-06T06:07:57.527Z,25.20
2022-11-06T06:11:00.786Z,20.20
2022-11-06T06:14:04.064Z,24.00
2022-11-06T06:17:07.986Z,25.60
2022-11-06T06:20:12.439Z,26.00
2022-11-06T06:23:17.160Z,21.40
2022-11-06T06:26:20.417Z,25.00
2022-11-06T06:29:23.661Z,26.00
2022-11-06T06:32:27.004Z,25.00
2022-11-06T06:35:30.299Z,26.80
2022-11-06T06:38:35.254Z,22.00
2022-11-06T06:41:38.656Z,26.40
2022-11-06T06:44:41.959Z,26.60
2022-11-06T06:47:45.285Z,27.50
2022-11-06T06:50:48.485Z,25.00
2022-11-06T06:53:53.344Z,24.60
2022-11-06T06:56:56.591Z,23.80
2022-11-06T07:00:00.302Z,25.25
2022-11-06T07:03:03.691Z,24.00
2022-11-06T07:06:08.407Z,28.00
2022-11-06T07:09:13.358Z,26.00
2022-11-06T07:12:16.583Z,22.20
2022-11-06T07:15:19.904Z,24.75
2022-11-06T07:18:24.915Z,23.80
2022-11-06T07:21:28.222Z,26.20
2022-11-06T07:24:32.869Z,19.25
2022-11-06T07:27:36.331Z,21.60
2022-11-06T07:30:39.668Z,18.50
2022-11-06T07:33:43.369Z,24.40
2022-11-06T07:36:46.815Z,24.00
2022-11-06T07:39:51.502Z,21.00
2022-11-06T07:42:55.228Z,25.00
2022-11-06T07:46:01.187Z,24.80
2022-11-06T07:49:04.466Z,24.00
2022-11-06T07:52:07.975Z,24.40
2022-11-06T07:55:12.740Z,21.50
2022-11-06T07:58:16.905Z,23.60
2022-11-06T08:01:20.562Z,23.75
2022-11-06T08:04:24.009Z,22.20
2022-11-06T08:07:27.704Z,24.00
2022-11-06T08:10:32.767Z,20.00
2022-11-06T08:13:36.396Z,25.00
2022-11-06T08:16:39.676Z,21.50
2022-11-06T08:19:42.937Z,24.33
2022-11-06T08:22:46.333Z,23.00
2022-11-06T08:25:51.169Z,24.67
2022-11-06T08:28:54.674Z,20.40
2022-11-06T08:31:57.869Z,22.80
2022-11-06T08:35:01.149Z,21.60
2022-11-06T08:38:05.195Z,21.60
2022-11-06T08:41:12.875Z,23.40
2022-11-06T08:44:16.293Z,24.00
2022-11-06T08:47:19.533Z,21.20
2022-11-06T08:50:22.908Z,22.60
2022-11-06T08:53:26.318Z,19.00
2022-11-06T08:56:30.998Z,28.00
2022-11-06T08:59:34.277Z,23.00
2022-11-06T09:02:37.899Z,21.00
2022-11-06T09:05:42.302Z,24.00
2022-11-06T09:08:45.829Z,28.25
2022-11-06T09:11:50.628Z,27.00
2022-11-06T09:14:54.275Z,22.20
2022-11-06T09:17:57.957Z,21.60
2022-11-06T09:21:01.428Z,23.00
2022-11-06T09:24:05.164Z,23.25
2022-11-06T09:27:09.993Z,25.75
2022-11-06T09:30:15.754Z,23.00
2022-11-06T09:33:19.905Z,24.50
2022-11-06T09:36:23.680Z,24.25
2022-11-06T09:39:27.363Z,22.80
2022-11-06T09:42:44.638Z,25.50
2022-11-06T09:45:54.753Z,23.80
2022-11-06T09:49:02.894Z,24.75
2022-11-06T09:52:13.320Z,24.50
2022-11-06T09:55:22.480Z,23.80
2022-11-06T09:58:32.650Z,26.00
2022-11-06T10:01:43.449Z,23.40
2022-11-06T10:04:52.694Z,25.00
2022-11-06T10:07:58.696Z,23.20
2022-11-06T10:11:05.433Z,24.75
2022-11-06T10:14:21.125Z,22.40
2022-11-06T10:17:39.805Z,25.00
2022-11-06T10:20:49.516Z,23.20
2022-11-06T10:23:57.921Z,25.00
2022-11-06T10:27:11.096Z,23.20
2022-11-06T10:30:18.790Z,21.25
2022-11-06T10:33:33.635Z,19.80
2022-11-06T10:36:48.689Z,21.50
2022-11-06T10:39:56.521Z,26.60
2022-11-06T10:43:10.206Z,21.33
2022-11-06T10:46:23.604Z,22.00
2022-11-06T10:49:36.859Z,19.00
2022-11-06T10:52:52.290Z,18.20
2022-11-06T10:56:21.807Z,15.60
2022-11-06T10:59:25.447Z,18.00
2022-11-06T11:02:35.236Z,20.20
2022-11-06T11:05:41.390Z,21.40
2022-11-06T11:08:46.375Z,18.80
2022-11-06T11:11:51.054Z,19.25
2022-11-06T11:15:13.362Z,23.00
2022-11-06T11:18:30.990Z,21.20
2022-11-06T11:21:34.727Z,22.20
2022-11-06T11:24:37.913Z,20.00
2022-11-06T11:27:46.212Z,24.50
2022-11-06T11:30:54.454Z,26.60
2022-11-06T11:34:03.649Z,32.00
2022-11-06T11:37:08.412Z,27.40
2022-11-06T11:40:23.243Z,29.00
2022-11-06T11:43:29.168Z,30.00
2022-11-06T11:46:33.489Z,33.00
2022-11-06T11:49:38.628Z,32.50
2022-11-06T11:52:42.815Z,28.60
2022-11-06T11:55:49.579Z,29.50
2022-11-06T11:58:55.985Z,29.00
2022-11-06T12:02:05.432Z,27.40
2022-11-06T12:05:15.271Z,23.60
2022-11-06T12:08:26.297Z,21.80
2022-11-06T12:11:31.773Z,23.00
2022-11-06T12:14:36.790Z,26.00
2022-11-06T12:17:41.731Z,23.00
2022-11-06T12:20:53.620Z,25.25
2022-11-06T12:24:02.020Z,26.40
2022-11-06T12:27:10.925Z,19.00
2022-11-06T12:30:17.553Z,20.75
2022-11-06T12:33:45.526Z,24.00
2022-11-06T12:37:02.361Z,11.60
2022-11-06T12:40:23.531Z,19.20
2022-11-06T12:43:37.543Z,22.60
2022-11-06T12:46:49.733Z,21.50
2022-11-06T12:50:23.886Z,18.00
2022-11-06T12:53:37.821Z,20.80
2022-11-06T12:56:50.468Z,19.40
2022-11-06T13:00:09.638Z,15.75
2022-11-06T13:03:34.958Z,18.00
2022-11-06T13:07:03.650Z,17.60
2022-11-06T13:10:24.315Z,13.60
2022-11-06T13:13:45.456Z,17.00
2022-11-06T13:17:01.301Z,14.80
2022-11-06T13:20:10.529Z,18.40
2022-11-06T13:23:21.030Z,14.00
2022-11-06T13:26:34.487Z,16.60
2022-11-06T13:29:39.184Z,16.00
2022-11-06T13:32:49.712Z,13.00
2022-11-06T13:35:56.171Z,14.75
2022-11-06T13:39:06.661Z,14.80
2022-11-06T13:42:24.585Z,15.00
2022-11-06T13:45:29.562Z,14.75
2022-11-06T13:48:42.232Z,17.00
2022-11-06T13:51:54.015Z,19.80
2022-11-06T13:55:11.226Z,14.00
2022-11-06T13:58:29.440Z,14.75
2022-11-06T14:01:49.502Z,15.60
2022-11-06T14:05:20.003Z,12.00
2022-11-06T14:08:28.925Z,16.00
2022-11-06T14:11:36.009Z,13.40
2022-11-06T14:14:40.710Z,14.00
2022-11-06T14:17:55.086Z,11.00
2022-11-06T14:21:42.971Z,12.00
2022-11-06T14:24:46.277Z,10.50
2022-11-06T14:28:07.486Z,12.00
2022-11-06T14:31:33.602Z,11.00
2022-11-06T14:34:39.132Z,10.40
2022-11-06T14:37:49.793Z,10.60
2022-11-06T14:40:53.070Z,10.00
2022-11-06T14:43:58.064Z,14.40
2022-11-06T14:47:06.887Z,10.00
2022-11-06T14:50:25.953Z,10.60
2022-11-06T14:53:33.290Z,11.50
2022-11-06T14:56:39.545Z,10.80
2022-11-06T14:59:43.970Z,9.00
2022-11-06T15:02:49.932Z,9.00
2022-11-06T15:06:03.701Z,8.80
2022-11-06T15:09:12.503Z,15.00
2022-11-06T15:12:15.947Z,12.00
2022-11-06T15:15:21.037Z,12.00
2022-11-06T15:18:27.352Z,14.20
2022-11-06T15:21:36.557Z,12.60
2022-11-06T15:24:44.531Z,14.00
2022-11-06T15:27:56.677Z,12.50
2022-11-06T15:31:05.314Z,11.00
2022-11-06T15:34:17.123Z,10.80
2022-11-06T15:37:25.051Z,13.40
2022-11-06T15:40:32.108Z,10.00
2022-11-06T15:43:37.872Z,10.00
2022-11-06T15:46:54.262Z,14.00
2022-11-06T15:50:17.378Z,10.00
2022-11-06T15:53:25.039Z,9.00
2022-11-06T15:56:32.866Z,8.60
2022-11-06T15:59:36.102Z,10.00
2022-11-06T16:02:48.285Z,10.60
2022-11-06T16:05:55.056Z,12.00
2022-11-06T16:08:59.580Z,11.25
2022-11-06T16:12:03.205Z,12.40
2022-11-06T16:15:07.190Z,16.20
2022-11-06T16:18:16.210Z,17.00
2022-11-06T16:21:24.272Z,14.00
2022-11-06T16:24:31.439Z,16.40
2022-11-06T16:27:37.077Z,18.40
2022-11-06T16:30:40.793Z,20.40
2022-11-06T16:33:54.910Z,19.00
2022-11-06T16:37:02.891Z,23.40
2022-11-06T16:40:23.230Z,23.40
2022-11-06T16:43:26.766Z,24.40
2022-11-06T16:47:12.104Z,23.00
2022-11-06T16:50:46.380Z,24.40
2022-11-06T16:53:57.609Z,23.00
2022-11-06T16:57:09.896Z,27.25
2022-11-06T17:00:24.981Z,21.00
2022-11-06T17:03:35.169Z,23.00
2022-11-06T17:06:38.820Z,26.00
2022-11-06T17:09:43.588Z,22.60
2022-11-06T17:12:47.231Z,22.00
2022-11-06T17:15:55.202Z,18.67
2022-11-06T17:18:58.554Z,22.00
2022-11-06T17:22:01.860Z,23.00
2022-11-06T17:25:07.242Z,23.00
2022-11-06T17:28:11.473Z,22.00
2022-11-06T17:31:17.793Z,22.60
2022-11-06T17:34:20.985Z,22.75
2022-11-06T17:37:25.043Z,21.20
2022-11-06T17:40:29.674Z,22.00
2022-11-06T17:43:33.231Z,24.80
2022-11-06T17:46:41.353Z,27.60
2022-11-06T17:49:47.014Z,23.00
2022-11-06T17:52:50.242Z,25.60
2022-11-06T17:55:55.044Z,27.00
2022-11-06T17:58:58.380Z,24.60
2022-11-06T18:02:02.314Z,25.75
2022-11-06T18:05:06.719Z,27.60
2022-11-06T18:08:13.620Z,25.20
2022-11-06T18:11:19.253Z,25.20
2022-11-06T18:14:24.688Z,22.60
2022-11-06T18:17:28.083Z,25.40
2022-11-06T18:20:31.475Z,25.00
2022-11-06T18:23:36.614Z,27.00
2022-11-06T18:26:41.971Z,28.00
2022-11-06T18:29:45.347Z,27.75
2022-11-06T18:32:48.621Z,26.80
2022-11-06T18:35:52.175Z,28.00
2022-11-06T18:38:55.464Z,24.50
2022-11-06T18:42:00.714Z,31.25
2022-11-06T18:45:04.304Z,31.40
2022-11-06T18:48:08.972Z,30.20
2022-11-06T18:51:17.625Z,28.80
2022-11-06T18:54:30.732Z,25.50
2022-11-06T18:57:35.340Z,31.00
2022-11-06T19:00:38.613Z,30.00
2022-11-06T19:03:42.597Z,31.00
2022-11-06T19:06:45.875Z,29.60
2022-11-06T19:09:49.452Z,36.00
2022-11-06T19:12:56.257Z,31.50
2022-11-06T19:16:02.821Z,31.60
2022-11-06T19:19:13.811Z,31.00
2022-11-06T19:22:17.393Z,30.60
2022-11-06T19:25:35.550Z,29.60
2022-11-06T19:28:43.324Z,27.00
2022-11-06T19:31:46.984Z,26.00
2022-11-06T19:34:52.216Z,27.40
2022-11-06T19:37:55.594Z,27.00
2022-11-06T19:41:01.747Z,29.00
2022-11-06T19:44:11.435Z,31.00
2022-11-06T19:47:22.311Z,30.00
2022-11-06T19:50:53.638Z,25.50
2022-11-06T19:54:02.160Z,32.60
2022-11-06T19:57:29.097Z,28.40
2022-11-06T20:00:30.695Z,28.75
2022-11-06T20:03:34.016Z,29.00
2022-11-06T20:06:39.059Z,55.00
2022-11-06T20:09:44.568Z,38.60
2022-11-06T20:12:48.493Z,31.00
2022-11-06T20:15:53.071Z,30.40
2022-11-06T20:18:59.590Z,31.80
2022-11-06T20:22:03.428Z,28.00
2022-11-06T20:25:07.717Z,32.80
2022-11-06T20:28:11.035Z,32.50
2022-11-06T20:31:19.830Z,33.50
2022-11-06T20:34:23.106Z,29.75
2022-11-06T20:37:26.924Z,37.40
2022-11-06T20:40:32.070Z,30.00
2022-11-06T20:43:37.768Z,28.50
2022-11-06T20:46:43.587Z,34.00
2022-11-06T20:49:48.439Z,34.20
2022-11-06T20:52:51.744Z,34.75
2022-11-06T20:55:59.114Z,34.50
2022-11-06T20:59:02.324Z,30.75
2022-11-06T21:02:07.105Z,33.60
2022-11-06T21:05:11.178Z,32.50
2022-11-06T21:08:14.443Z,31.00
2022-11-06T21:11:19.453Z,33.25
2022-11-06T21:14:23.234Z,31.75
2022-11-06T21:17:28.127Z,28.40
2022-11-06T21:20:31.376Z,33.00
2022-11-06T21:23:35.811Z,32.00
2022-11-06T21:26:39.705Z,28.20
2022-11-06T21:29:43.018Z,31.00
2022-11-06T21:32:47.631Z,31.60
2022-11-06T21:35:50.841Z,34.00
2022-11-06T21:38:55.131Z,32.40
2022-11-06T21:41:58.285Z,36.25
2022-11-06T21:45:01.512Z,31.25
2022-11-06T21:48:19.863Z,30.60
2022-11-06T21:51:32.806Z,28.80
2022-11-06T21:54:53.320Z,26.75
2022-11-06T21:57:56.719Z,32.50
2022-11-06T22:01:02.957Z,34.40
2022-11-06T22:04:09.326Z,28.60
2022-11-06T22:07:12.663Z,36.00
2022-11-06T22:10:16.612Z,32.20
2022-11-06T22:13:20.190Z,36.80
2022-11-06T22:16:25.725Z,32.60
2022-11-06T22:19:30.761Z,33.00
2022-11-06T22:22:34.318Z,37.00
2022-11-06T22:25:40.095Z,35.00
2022-11-06T22:28:44.245Z,33.75
2022-11-06T22:31:47.585Z,30.60
2022-11-06T22:34:52.505Z,38.40
2022-11-06T22:37:55.744Z,34.00
2022-11-06T22:41:01.424Z,34.60
2022-11-06T22:44:05.529Z,35.60
2022-11-06T22:47:09.034Z,32.20
2022-11-06T22:50:13.816Z,35.60
2022-11-06T22:53:17.550Z,32.00
2022-11-06T22:56:23.229Z,33.80
2022-11-06T22:59:26.645Z,31.80
2022-11-06T23:02:30.007Z,31.40
2022-11-06T23:05:34.628Z,32.00
2022-11-06T23:08:45.560Z,34.50
2022-11-06T23:11:50.216Z,31.75
2022-11-06T23:14:53.563Z,33.00
2022-11-06T23:17:56.859Z,32.00
2022-11-06T23:21:01.860Z,32.50
2022-11-06T23:24:06.683Z,34.40
2022-11-06T23:27:11.001Z,32.00
2022-11-06T23:30:15.449Z,29.60
2022-11-06T23:33:18.692Z,29.60
2022-11-06T23:36:23.483Z,27.25
2022-11-06T23:39:26.710Z,31.60
2022-11-06T23:42:30.056Z,28.00
2022-11-06T23:45:51.639Z,30.00
2022-11-06T23:48:55.281Z,28.50
2022-11-06T23:52:00.446Z,26.20
2022-11-06T23:55:05.050Z,29.80
2022-11-06T23:58:08.360Z,27.00
